createdAt,value
2023-05-04T00:02:30.729Z,11.03
2023-05-04T00:05:02.708Z,7.85
2023-05-04T00:07:34.799Z,7.45
2023-05-04T00:10:07.084Z,8.63
2023-05-04T00:12:39.383Z,16.63
2023-05-04T00:17:42.464Z,11.25
2023-05-04T00:20:13.950Z,9.98
2023-05-04T00:22:45.397Z,8.57
2023-05-04T00:25:16.973Z,9.20
2023-05-04T00:27:48.448Z,10.55
2023-05-04T00:30:20.425Z,12.30
2023-05-04T00:32:52.010Z,11.18
2023-05-04T00:35:23.557Z,9.20
2023-05-04T00:37:55.050Z,8.55
2023-05-04T00:40:26.576Z,10.00
2023-05-04T00:42:58.567Z,11.85
2023-05-04T00:45:30.476Z,9.68
2023-05-04T00:48:02.542Z,12.43
2023-05-04T00:50:34.869Z,10.00
2023-05-04T00:53:10.633Z,14.15
2023-05-04T00:55:42.153Z,8.82
2023-05-04T00:58:13.677Z,10.45
2023-05-04T01:00:45.283Z,9.25
2023-05-04T01:03:17.267Z,11.55
2023-05-04T01:06:27.817Z,10.30
2023-05-04T01:09:11.341Z,8.20
2023-05-04T01:11:53.733Z,14.15
2023-05-04T01:14:25.572Z,8.80
2023-05-04T01:16:59.416Z,9.95
2023-05-04T01:19:31.132Z,8.68
2023-05-04T01:22:02.666Z,9.57
2023-05-04T01:24:34.528Z,11.30
2023-05-04T01:27:11.350Z,9.82
2023-05-04T01:29:48.638Z,9.85
2023-05-04T01:32:21.626Z,8.80
2023-05-04T01:34:53.258Z,10.93
2023-05-04T01:37:25.512Z,7.25
2023-05-04T01:39:56.966Z,17.20
2023-05-04T01:42:28.392Z,8.10
2023-05-04T01:45:00.080Z,8.57
2023-05-04T01:47:31.718Z,8.43
2023-05-04T01:50:05.689Z,7.60
2023-05-04T01:52:37.537Z,9.80
2023-05-04T01:55:09.355Z,7.97
2023-05-04T01:57:40.890Z,7.45
2023-05-04T02:00:12.929Z,11.00
2023-05-04T02:02:44.479Z,9.73
2023-05-04T02:05:16.382Z,9.98
2023-05-04T02:07:47.955Z,9.27
2023-05-04T02:10:19.459Z,9.60
2023-05-04T02:12:52.145Z,10.07
2023-05-04T02:15:23.747Z,8.13
2023-05-04T02:17:55.377Z,9.07
2023-05-04T02:20:26.982Z,9.00
2023-05-04T02:23:01.311Z,12.75
2023-05-04T02:25:32.858Z,13.25
2023-05-04T02:28:04.446Z,10.15
2023-05-04T02:30:36.029Z,10.35
2023-05-04T02:33:07.816Z,7.00
2023-05-04T02:35:39.391Z,10.15
2023-05-04T02:38:10.892Z,13.53
2023-05-04T02:40:42.425Z,9.47
2023-05-04T02:43:13.960Z,7.70
2023-05-04T02:45:45.563Z,8.20
2023-05-04T02:48:17.029Z,9.02
2023-05-04T02:50:48.535Z,10.73
2023-05-04T02:53:20.049Z,9.23
2023-05-04T02:55:51.578Z,9.05
2023-05-04T02:58:23.086Z,15.15
2023-05-04T03:00:57.878Z,11.67
2023-05-04T03:03:29.393Z,11.60
2023-05-04T03:06:01.130Z,13.37
2023-05-04T03:08:32.591Z,9.65
2023-05-04T03:11:04.055Z,12.53
2023-05-04T03:13:35.705Z,12.77
2023-05-04T03:16:07.310Z,10.45
2023-05-04T03:21:28.081Z,13.50
2023-05-04T03:23:59.559Z,13.25
2023-05-04T03:26:31.154Z,15.20
2023-05-04T03:29:02.736Z,11.18
2023-05-04T03:31:34.296Z,11.90
2023-05-04T03:34:05.833Z,15.05
2023-05-04T03:36:37.416Z,12.13
2023-05-04T03:39:10.073Z,13.83
2023-05-04T03:41:41.576Z,12.93
2023-05-04T03:44:13.011Z,10.73
2023-05-04T03:46:44.560Z,10.47
2023-05-04T03:49:16.072Z,9.23
2023-05-04T03:51:48.706Z,11.30
2023-05-04T03:54:20.186Z,16.07
2023-05-04T03:56:52.394Z,11.80
2023-05-04T03:59:23.888Z,10.43
2023-05-04T04:01:55.438Z,12.00
2023-05-04T04:04:27.359Z,12.55
2023-05-04T04:06:58.913Z,11.68
2023-05-04T04:09:30.470Z,11.20
2023-05-04T04:12:02.301Z,11.07
2023-05-04T04:14:33.767Z,13.25
2023-05-04T04:17:05.432Z,13.63
2023-05-04T04:19:36.967Z,14.20
2023-05-04T04:22:08.500Z,15.32
2023-05-04T04:24:40.006Z,11.00
2023-05-04T04:27:11.480Z,12.80
2023-05-04T04:29:43.045Z,12.80
2023-05-04T04:32:14.602Z,14.98
2023-05-04T04:34:46.236Z,14.23
2023-05-04T04:37:18.020Z,17.63
2023-05-04T04:39:49.515Z,17.30
2023-05-04T04:42:21.217Z,17.63
2023-05-04T04:44:52.724Z,18.30
2023-05-04T04:47:24.354Z,15.20
2023-05-04T04:49:55.906Z,13.32
2023-05-04T04:52:27.445Z,16.25
2023-05-04T04:54:58.977Z,14.80
2023-05-04T04:57:31.835Z,17.10
2023-05-04T05:00:08.531Z,14.60
2023-05-04T05:02:40.083Z,16.38
2023-05-04T05:05:12.920Z,17.13
2023-05-04T05:07:44.634Z,14.02
2023-05-04T05:10:16.607Z,14.20
2023-05-04T05:12:49.601Z,18.58
2023-05-04T05:15:21.617Z,16.38
2023-05-04T05:17:53.183Z,15.45
2023-05-04T05:20:36.255Z,14.30
2023-05-04T05:23:07.814Z,15.60
2023-05-04T05:25:39.423Z,14.23
2023-05-04T05:28:11.159Z,14.50
2023-05-04T05:30:42.893Z,13.15
2023-05-04T05:33:14.570Z,28.48
2023-05-04T05:35:46.146Z,21.48
2023-05-04T05:38:18.372Z,14.63
2023-05-04T05:40:49.888Z,12.93
2023-05-04T05:43:21.642Z,13.10
2023-05-04T05:45:53.640Z,14.10
2023-05-04T05:48:25.130Z,14.40
2023-05-04T05:50:56.637Z,15.63
2023-05-04T05:53:28.133Z,13.57
2023-05-04T05:55:59.669Z,11.48
2023-05-04T05:58:31.285Z,10.38
2023-05-04T06:01:03.566Z,11.02
2023-05-04T06:06:06.695Z,11.05
2023-05-04T06:08:38.207Z,12.73
2023-05-04T06:11:09.710Z,10.87
2023-05-04T06:13:41.234Z,11.50
2023-05-04T06:16:13.037Z,9.43
2023-05-04T06:18:44.546Z,9.70
2023-05-04T06:21:16.185Z,11.43
2023-05-04T06:23:47.822Z,11.02
2023-05-04T06:26:20.170Z,10.45
2023-05-04T06:28:51.935Z,10.18
2023-05-04T06:31:24.216Z,13.07
2023-05-04T06:36:27.353Z,9.57
2023-05-04T06:38:58.873Z,10.95
2023-05-04T06:41:30.605Z,10.38
2023-05-04T06:44:02.301Z,9.18
2023-05-04T06:46:37.301Z,9.82
2023-05-04T06:49:08.821Z,8.10
2023-05-04T06:51:40.810Z,10.68
2023-05-04T06:54:13.090Z,8.77
2023-05-04T06:59:16.926Z,10.48
2023-05-04T07:01:48.650Z,10.98
2023-05-04T07:04:23.219Z,9.93
2023-05-04T07:06:55.017Z,8.60
2023-05-04T07:09:26.818Z,11.43
2023-05-04T07:11:58.317Z,10.65
2023-05-04T07:14:29.890Z,10.93
2023-05-04T07:17:01.378Z,6.90
2023-05-04T07:19:32.845Z,51.97
2023-05-04T07:22:04.297Z,7.00
2023-05-04T07:24:35.767Z,7.43
2023-05-04T07:27:07.778Z,8.30
2023-05-04T07:29:39.383Z,6.32
2023-05-04T07:32:11.137Z,5.45
2023-05-04T07:34:46.319Z,7.15
2023-05-04T07:37:18.056Z,6.65
2023-05-04T07:39:49.568Z,7.57
2023-05-04T07:42:21.047Z,8.18
2023-05-04T07:44:52.952Z,7.25
2023-05-04T07:47:24.901Z,7.00
2023-05-04T07:49:56.463Z,7.35
2023-05-04T07:52:28.050Z,5.38
2023-05-04T07:54:59.569Z,12.63
2023-05-04T07:57:32.342Z,4.93
2023-05-04T08:00:06.180Z,7.55
2023-05-04T08:02:38.087Z,4.60
2023-05-04T08:05:09.910Z,4.80
2023-05-04T08:07:41.483Z,8.52
2023-05-04T08:10:13.052Z,6.22
2023-05-04T08:12:44.562Z,5.22
2023-05-04T08:15:16.432Z,7.43
2023-05-04T08:17:47.956Z,6.28
2023-05-04T08:20:20.303Z,6.80
2023-05-04T08:22:53.386Z,5.00
2023-05-04T08:27:56.554Z,4.15
2023-05-04T08:30:28.228Z,4.13
2023-05-04T08:33:00.391Z,4.20
2023-05-04T08:38:03.922Z,4.40
2023-05-04T08:40:35.447Z,9.10
2023-05-04T08:43:07.408Z,5.07
2023-05-04T08:45:40.000Z,3.53
2023-05-04T08:48:11.659Z,3.78
2023-05-04T08:50:43.536Z,5.20
2023-05-04T08:53:18.731Z,3.80
2023-05-04T08:55:52.739Z,4.07
2023-05-04T08:58:25.293Z,3.08
2023-05-04T09:01:01.110Z,3.67
2023-05-04T09:03:34.295Z,6.32
2023-05-04T09:06:07.274Z,7.57
2023-05-04T09:08:38.830Z,4.65
2023-05-04T09:11:10.498Z,5.20
2023-05-04T09:13:42.977Z,3.75
2023-05-04T09:16:16.228Z,4.07
2023-05-04T09:18:47.873Z,5.43
2023-05-04T09:21:28.896Z,3.53
2023-05-04T09:24:00.445Z,3.30
2023-05-04T09:26:33.051Z,11.90
2023-05-04T09:29:15.060Z,7.53
2023-05-04T09:31:48.374Z,2.92
2023-05-04T09:34:21.440Z,3.53
2023-05-04T09:37:01.585Z,6.60
2023-05-04T09:39:33.085Z,6.50
2023-05-04T09:42:05.765Z,4.18
2023-05-04T09:44:37.276Z,2.50
2023-05-04T09:47:08.786Z,3.80
2023-05-04T09:49:40.327Z,2.33
2023-05-04T09:52:12.503Z,7.95
2023-05-04T09:57:18.820Z,3.90
2023-05-04T09:59:52.216Z,3.90
2023-05-04T10:02:24.546Z,5.30
2023-05-04T10:04:58.311Z,3.67
2023-05-04T10:07:31.552Z,5.45
2023-05-04T10:10:03.622Z,3.97
2023-05-04T10:15:08.789Z,2.38
2023-05-04T10:18:05.134Z,3.80
2023-05-04T10:20:54.942Z,6.32
2023-05-04T10:23:35.382Z,5.25
2023-05-04T10:26:31.898Z,6.25
2023-05-04T10:29:23.142Z,4.60
2023-05-04T10:31:56.843Z,2.75
2023-05-04T10:34:33.629Z,3.88
2023-05-04T10:37:16.728Z,2.47
2023-05-04T10:39:54.914Z,3.13
2023-05-04T10:42:26.680Z,4.65
2023-05-04T10:44:58.303Z,2.78
2023-05-04T10:47:34.532Z,5.18
2023-05-04T10:50:12.256Z,5.82
2023-05-04T10:52:50.936Z,3.40
2023-05-04T10:55:22.561Z,4.95
2023-05-04T10:57:55.922Z,4.32
2023-05-04T11:00:45.774Z,2.85
2023-05-04T11:03:19.029Z,2.60
2023-05-04T11:05:52.664Z,3.28
2023-05-04T11:08:27.472Z,4.47
2023-05-04T11:11:06.785Z,3.13
2023-05-04T11:13:46.101Z,2.80
2023-05-04T11:16:24.867Z,5.30
2023-05-04T11:19:07.502Z,6.07
2023-05-04T11:21:40.759Z,2.70
2023-05-04T11:24:12.461Z,3.35
2023-05-04T11:26:48.873Z,3.83
2023-05-04T11:29:20.828Z,2.95
2023-05-04T11:31:55.797Z,2.85
2023-05-04T11:34:27.825Z,4.43
2023-05-04T11:39:33.443Z,8.73
2023-05-04T11:42:09.053Z,3.03
2023-05-04T11:44:40.816Z,2.35
2023-05-04T11:47:13.579Z,5.95
2023-05-04T11:49:47.493Z,6.93
2023-05-04T11:52:25.720Z,5.85
2023-05-04T11:54:57.438Z,5.22
2023-05-04T11:57:31.571Z,7.13
2023-05-04T12:00:07.908Z,3.30
2023-05-04T12:02:39.562Z,4.75
2023-05-04T12:05:13.522Z,3.03
2023-05-04T12:07:45.156Z,6.15
2023-05-04T12:10:28.275Z,5.20
2023-05-04T12:13:02.100Z,3.35
2023-05-04T12:15:36.556Z,4.03
2023-05-04T12:18:08.121Z,4.53
2023-05-04T12:20:39.624Z,3.95
2023-05-04T12:23:11.273Z,3.60
2023-05-04T12:25:54.679Z,5.13
2023-05-04T12:28:29.888Z,5.70
2023-05-04T12:33:33.705Z,6.73
2023-05-04T12:36:06.203Z,4.68
2023-05-04T12:38:40.737Z,3.97
2023-05-04T12:41:12.533Z,5.43
2023-05-04T12:43:44.091Z,4.22
2023-05-04T12:46:17.479Z,3.22
2023-05-04T12:48:49.046Z,3.50
2023-05-04T12:51:20.832Z,4.35
2023-05-04T12:53:52.401Z,3.83
2023-05-04T12:56:25.101Z,6.28
2023-05-04T12:58:56.551Z,4.50
2023-05-04T13:01:28.236Z,3.53
2023-05-04T13:03:59.796Z,3.25
2023-05-04T13:06:31.799Z,7.40
2023-05-04T13:09:06.048Z,3.67
2023-05-04T13:11:38.055Z,3.78
2023-05-04T13:16:41.817Z,3.30
2023-05-04T13:19:13.841Z,4.03
2023-05-04T13:21:45.821Z,4.25
2023-05-04T13:24:17.709Z,7.53
2023-05-04T13:29:27.358Z,4.05
2023-05-04T13:31:59.820Z,7.63
2023-05-04T13:34:31.796Z,5.10
2023-05-04T13:39:41.864Z,4.28
2023-05-04T13:42:14.040Z,2.85
2023-05-04T13:44:45.944Z,4.95
2023-05-04T13:49:50.554Z,3.67
2023-05-04T13:52:22.501Z,2.85
2023-05-04T13:54:54.536Z,4.65
2023-05-04T13:57:29.973Z,3.05
2023-05-04T14:00:07.572Z,4.47
2023-05-04T14:02:41.294Z,3.58
2023-05-04T14:05:13.784Z,3.58
2023-05-04T14:07:45.280Z,3.50
2023-05-04T14:10:17.645Z,6.40
2023-05-04T14:12:49.178Z,4.30
2023-05-04T14:15:23.216Z,5.53
2023-05-04T14:17:54.773Z,8.32
2023-05-04T14:20:26.529Z,4.38
2023-05-04T14:25:29.459Z,5.77
2023-05-04T14:28:01.784Z,7.63
2023-05-04T14:30:33.894Z,8.40
2023-05-04T14:33:05.470Z,5.45
2023-05-04T14:35:43.168Z,6.30
2023-05-04T14:38:15.056Z,4.75
2023-05-04T14:40:48.976Z,5.68
2023-05-04T14:43:21.595Z,5.68
2023-05-04T14:45:53.315Z,12.43
2023-05-04T14:50:57.880Z,11.18
2023-05-04T14:53:33.163Z,7.93
2023-05-04T14:56:04.816Z,4.45
2023-05-04T15:01:08.287Z,6.15
2023-05-04T15:03:39.927Z,6.82
2023-05-04T15:08:43.290Z,3.05
2023-05-04T15:11:14.758Z,5.97
2023-05-04T15:16:17.901Z,7.68
2023-05-04T15:18:49.397Z,4.07
2023-05-04T15:21:21.361Z,8.68
2023-05-04T15:23:52.926Z,6.15
2023-05-04T15:26:24.430Z,3.40
2023-05-04T15:28:55.994Z,6.40
2023-05-04T15:31:27.549Z,4.65
2023-05-04T15:34:00.567Z,3.55
2023-05-04T15:36:32.160Z,6.82
2023-05-04T15:39:05.446Z,7.25
2023-05-04T15:41:37.073Z,4.93
2023-05-04T15:44:08.598Z,6.30
2023-05-04T15:46:40.180Z,6.45
2023-05-04T15:49:11.756Z,7.85
2023-05-04T15:51:43.251Z,6.47
2023-05-04T15:54:14.810Z,6.00
2023-05-04T15:56:46.356Z,5.10
2023-05-04T15:59:17.935Z,5.38
2023-05-04T16:01:49.559Z,4.13
2023-05-04T16:04:21.048Z,6.30
2023-05-04T16:06:52.530Z,5.75
2023-05-04T16:09:25.325Z,7.82
2023-05-04T16:11:57.013Z,3.00
2023-05-04T16:14:28.468Z,4.63
2023-05-04T16:17:01.348Z,4.45
2023-05-04T16:19:33.022Z,4.82
2023-05-04T16:22:04.511Z,5.53
2023-05-04T16:24:36.159Z,5.40
2023-05-04T16:27:07.828Z,4.50
2023-05-04T16:29:39.321Z,3.28
2023-05-04T16:32:10.774Z,7.82
2023-05-04T16:34:42.243Z,3.67
2023-05-04T16:37:13.788Z,3.95
2023-05-04T16:42:16.591Z,4.78
2023-05-04T16:44:48.027Z,4.80
2023-05-04T16:47:20.314Z,3.95
2023-05-04T16:49:51.825Z,3.70
2023-05-04T16:52:23.416Z,4.07
2023-05-04T16:54:55.114Z,5.78
2023-05-04T16:59:58.134Z,6.15
2023-05-04T17:02:29.716Z,7.80
2023-05-04T17:05:01.364Z,6.32
2023-05-04T17:07:34.098Z,6.63
2023-05-04T17:10:07.991Z,6.97
2023-05-04T17:12:39.879Z,7.53
2023-05-04T17:15:11.822Z,8.05
2023-05-04T17:17:43.371Z,3.60
2023-05-04T17:20:15.252Z,10.77
2023-05-04T17:25:18.515Z,6.53
2023-05-04T17:27:50.033Z,4.97
2023-05-04T17:30:21.728Z,8.43
2023-05-04T17:32:54.366Z,3.75
2023-05-04T17:35:26.737Z,4.95
2023-05-04T17:37:58.998Z,10.40
2023-05-04T17:40:30.746Z,5.32
2023-05-04T17:43:02.332Z,4.05
2023-05-04T17:45:34.088Z,3.83
2023-05-04T17:48:06.281Z,4.75
2023-05-04T17:50:38.046Z,4.80
2023-05-04T17:53:09.518Z,4.97
2023-05-04T17:55:40.957Z,6.43
2023-05-04T17:58:12.450Z,3.85
2023-05-04T18:00:43.925Z,4.65
2023-05-04T18:03:15.613Z,3.83
2023-05-04T18:05:47.211Z,5.68
2023-05-04T18:08:18.993Z,7.65
2023-05-04T18:10:50.682Z,6.22
2023-05-04T18:13:22.340Z,5.35
2023-05-04T18:15:54.002Z,3.35
2023-05-04T18:18:25.519Z,5.60
2023-05-04T18:21:00.750Z,6.47
2023-05-04T18:23:32.314Z,11.35
2023-05-04T18:26:04.010Z,2.72
2023-05-04T18:28:35.713Z,6.10
2023-05-04T18:31:07.299Z,3.05
2023-05-04T18:33:39.041Z,4.80
2023-05-04T18:36:11.119Z,2.78
2023-05-04T18:38:42.694Z,3.08
2023-05-04T18:41:14.296Z,4.38
2023-05-04T18:43:45.828Z,6.63
2023-05-04T18:46:17.409Z,4.38
2023-05-04T18:48:49.294Z,4.38
2023-05-04T18:51:20.804Z,5.40
2023-05-04T18:53:52.395Z,7.13
2023-05-04T18:56:24.066Z,4.18
2023-05-04T18:58:55.586Z,6.07
2023-05-04T19:01:27.845Z,6.90
2023-05-04T19:03:59.502Z,3.20
2023-05-04T19:06:32.518Z,2.95
2023-05-04T19:09:04.272Z,4.00
2023-05-04T19:11:35.770Z,5.20
2023-05-04T19:14:07.351Z,3.70
2023-05-04T19:16:38.978Z,2.65
2023-05-04T19:19:10.552Z,6.38
2023-05-04T19:21:42.960Z,7.13
2023-05-04T19:24:14.534Z,3.50
2023-05-04T19:26:46.118Z,3.72
2023-05-04T19:29:17.707Z,4.00
2023-05-04T19:31:49.283Z,4.65
2023-05-04T19:34:20.826Z,8.40
2023-05-04T19:36:52.477Z,6.82
2023-05-04T19:39:24.000Z,5.82
2023-05-04T19:41:55.504Z,5.80
2023-05-04T19:44:27.008Z,4.00
2023-05-04T19:46:58.734Z,7.13
2023-05-04T19:49:30.842Z,3.28
2023-05-04T19:52:02.384Z,5.90
2023-05-04T19:54:34.102Z,8.65
2023-05-04T19:57:05.571Z,5.88
2023-05-04T19:59:37.073Z,6.65
2023-05-04T20:02:08.752Z,5.95
2023-05-04T20:04:40.396Z,7.03
2023-05-04T20:07:11.879Z,6.25
2023-05-04T20:09:43.402Z,5.30
2023-05-04T20:12:14.881Z,7.65
2023-05-04T20:14:46.615Z,4.10
2023-05-04T20:17:18.168Z,3.65
2023-05-04T20:19:49.907Z,4.82
2023-05-04T20:22:21.415Z,4.82
2023-05-04T20:24:53.531Z,5.05
2023-05-04T20:27:25.278Z,4.75
2023-05-04T20:29:56.775Z,5.53
2023-05-04T20:32:28.901Z,9.25
2023-05-04T20:37:31.939Z,7.25
2023-05-04T20:40:03.786Z,7.68
2023-05-04T20:42:35.705Z,5.30
2023-05-04T20:45:07.818Z,7.65
2023-05-04T20:47:39.375Z,6.75
2023-05-04T20:50:11.888Z,4.78
2023-05-04T20:52:44.375Z,4.68
2023-05-04T20:55:16.480Z,3.92
2023-05-04T20:57:48.087Z,7.85
2023-05-04T21:00:20.019Z,3.85
2023-05-04T21:02:51.659Z,7.03
2023-05-04T21:05:23.352Z,4.97
2023-05-04T21:07:54.911Z,8.50
2023-05-04T21:10:26.519Z,4.40
2023-05-04T21:12:58.341Z,3.72
2023-05-04T21:15:29.919Z,5.80
2023-05-04T21:18:01.466Z,3.67
2023-05-04T21:20:33.130Z,4.78
2023-05-04T21:23:04.688Z,5.53
2023-05-04T21:25:36.236Z,10.00
2023-05-04T21:28:07.822Z,3.55
2023-05-04T21:30:42.668Z,4.40
2023-05-04T21:33:14.222Z,4.18
2023-05-04T21:35:45.755Z,4.80
2023-05-04T21:38:18.445Z,3.40
2023-05-04T21:40:51.804Z,3.85
2023-05-04T21:43:23.413Z,5.03
2023-05-04T21:45:54.912Z,5.40
2023-05-04T21:48:26.956Z,4.97
2023-05-04T21:50:58.456Z,6.82
2023-05-04T21:53:33.633Z,4.57
2023-05-04T21:56:09.356Z,4.15
2023-05-04T21:58:41.100Z,7.35
2023-05-04T22:01:17.068Z,5.20
2023-05-04T22:03:48.746Z,4.68
2023-05-04T22:06:21.982Z,7.57
2023-05-04T22:08:53.522Z,5.75
2023-05-04T22:11:25.330Z,6.03
2023-05-04T22:13:56.875Z,8.40
2023-05-04T22:16:28.471Z,7.80
2023-05-04T22:21:32.479Z,13.95
2023-05-04T22:24:04.314Z,10.48
2023-05-04T22:26:36.018Z,13.85
2023-05-04T22:29:07.532Z,8.13
2023-05-04T22:31:39.004Z,13.45
2023-05-04T22:34:10.562Z,5.65
2023-05-04T22:36:42.029Z,4.80
2023-05-04T22:39:13.542Z,7.57
2023-05-04T22:41:45.042Z,4.35
2023-05-04T22:44:16.529Z,9.00
2023-05-04T22:46:49.247Z,9.02
2023-05-04T22:49:20.800Z,4.70
2023-05-04T22:51:52.287Z,8.65
2023-05-04T22:54:23.796Z,5.20
2023-05-04T22:56:55.861Z,3.97
2023-05-04T22:59:27.356Z,3.85
2023-05-04T23:01:58.945Z,9.20
2023-05-04T23:04:31.191Z,6.10
2023-05-04T23:09:41.501Z,6.95
2023-05-04T23:12:14.162Z,5.28
2023-05-04T23:14:50.132Z,4.53
2023-05-04T23:17:22.105Z,10.15
2023-05-04T23:19:53.657Z,6.00
2023-05-04T23:22:25.669Z,5.55
2023-05-04T23:24:57.276Z,6.18
2023-05-04T23:27:28.823Z,6.65
2023-05-04T23:30:00.351Z,6.20
2023-05-04T23:32:31.930Z,6.72
2023-05-04T23:35:03.598Z,7.35
2023-05-04T23:37:35.108Z,3.45
2023-05-04T23:40:08.152Z,4.15
2023-05-04T23:42:39.847Z,4.43
2023-05-04T23:45:11.617Z,5.82
2023-05-04T23:47:43.172Z,4.47
2023-05-04T23:50:14.781Z,3.30
2023-05-04T23:52:46.347Z,3.13
2023-05-04T23:55:17.882Z,3.45
2023-05-04T23:57:49.434Z,5.68
